Time;durP1;ratioP1;P1;durP2;ratioP2;P2;SDS_P1;SDS_P2;PMS_P1;PMS_P2;Temp;Humidity;BMP_temperature;BMP_pressure;BME280_temperature;BME280_humidity;BME280_pressure;Samples;Min_cycle;Max_cycle;Signal;HPM_P1;HPM_P2
2023/06/01 00:01:37;;;;;;;8.82;5.47;;;12.10;99.90;;;;;;5138356;27;20047;-71
2023/06/01 00:04:03;;;;;;;13.02;6.05;;;12.10;99.90;;;;;;5121169;27;20039;-71
2023/06/01 00:06:30;;;;;;;12.55;6.35;;;12.10;99.90;;;;;;5155831;27;20455;-70
2023/06/01 00:08:56;;;;;;;9.77;6.90;;;12.10;99.90;;;;;;5156555;27;20107;-70
2023/06/01 00:11:22;;;;;;;15.45;6.30;;;12.00;99.90;;;;;;5156185;27;20482;-71
2023/06/01 00:13:49;;;;;;;9.98;5.22;;;12.10;99.90;;;;;;5156564;27;20084;-72
2023/06/01 00:16:16;;;;;;;8.65;5.82;;;12.00;99.90;;;;;;5137581;27;20046;-72
2023/06/01 00:18:41;;;;;;;11.25;6.20;;;12.00;99.90;;;;;;5156174;27;20121;-73
2023/06/01 00:21:07;;;;;;;10.45;5.93;;;12.00;99.90;;;;;;5154563;27;20074;-71
2023/06/01 00:23:33;;;;;;;18.95;6.55;;;12.10;99.90;;;;;;5137889;27;20050;-71
2023/06/01 00:26:00;;;;;;;11.55;5.78;;;12.00;99.90;;;;;;5156527;27;20046;-71
2023/06/01 00:28:26;;;;;;;8.52;6.03;;;12.00;99.90;;;;;;5156578;27;20062;-71
2023/06/01 00:30:53;;;;;;;13.15;5.60;;;12.00;99.90;;;;;;5137698;27;20042;-71
2023/06/01 00:33:22;;;;;;;13.25;7.28;;;12.10;99.90;;;;;;5155810;27;20042;-71
2023/06/01 00:35:47;;;;;;;9.60;5.93;;;12.00;99.90;;;;;;5155683;27;20042;-71
2023/06/01 00:38:13;;;;;;;15.15;6.43;;;12.00;99.90;;;;;;5155713;27;20484;-69
2023/06/01 00:40:39;;;;;;;14.13;6.35;;;11.90;99.90;;;;;;5155846;27;20038;-72
2023/06/01 00:43:04;;;;;;;9.60;6.00;;;11.90;99.90;;;;;;5155623;27;20566;-71
2023/06/01 00:45:30;;;;;;;15.50;5.55;;;11.80;99.90;;;;;;5155412;27;20397;-70
2023/06/01 00:47:57;;;;;;;10.10;5.70;;;11.80;99.90;;;;;;5155483;27;20042;-70
2023/06/01 00:50:23;;;;;;;10.50;6.60;;;11.80;99.90;;;;;;5155506;27;20046;-70
2023/06/01 00:52:50;;;;;;;13.38;5.57;;;11.80;99.90;;;;;;5155535;27;20045;-71
2023/06/01 00:55:16;;;;;;;9.65;6.32;;;11.80;99.90;;;;;;5155882;27;20094;-72
2023/06/01 00:57:46;;;;;;;12.63;5.13;;;11.80;99.90;;;;;;5156573;27;20078;-72
2023/06/01 01:00:12;;;;;;;9.10;5.57;;;11.80;99.90;;;;;;5138152;27;20062;-72
2023/06/01 01:02:44;;;;;;;10.48;5.60;;;11.80;99.90;;;;;;5156197;27;20042;-72
2023/06/01 01:05:10;;;;;;;9.77;5.95;;;11.80;99.90;;;;;;5156761;27;20043;-71
2023/06/01 01:08:15;;;;;;;8.65;5.75;;;11.80;99.90;;;;;;5137229;27;20047;-71
2023/06/01 01:10:59;;;;;;;16.88;5.45;;;11.80;99.90;;;;;;5150705;27;20054;-71
2023/06/01 01:13:34;;;;;;;12.23;6.20;;;11.80;99.90;;;;;;5155236;27;20042;-71
2023/06/01 01:16:07;;;;;;;15.90;6.35;;;11.80;99.90;;;;;;5155415;27;20046;-72
2023/06/01 01:18:42;;;;;;;17.75;5.93;;;11.70;99.90;;;;;;5154612;27;20039;-71
2023/06/01 01:21:22;;;;;;;11.45;6.53;;;11.70;99.90;;;;;;5155205;27;20048;-70
2023/06/01 01:24:06;;;;;;;12.88;6.40;;;11.70;99.90;;;;;;5154968;27;20071;-71
2023/06/01 01:26:54;;;;;;;12.30;6.38;;;11.70;99.90;;;;;;5154842;27;20065;-72
2023/06/01 01:29:23;;;;;;;9.50;5.90;;;11.70;99.90;;;;;;5155185;27;20055;-72
2023/06/01 01:31:50;;;;;;;15.82;7.15;;;11.70;99.90;;;;;;5154769;27;20115;-71
2023/06/01 01:34:19;;;;;;;10.20;6.75;;;11.80;99.90;;;;;;5154555;27;20114;-72
2023/06/01 01:36:45;;;;;;;11.45;5.68;;;11.80;99.90;;;;;;5155229;27;20117;-72
2023/06/01 01:39:11;;;;;;;10.35;6.38;;;11.80;99.90;;;;;;5154601;27;20494;-71
2023/06/01 01:41:36;;;;;;;12.95;6.15;;;11.80;99.90;;;;;;5154648;27;20042;-71
2023/06/01 01:44:03;;;;;;;9.85;6.15;;;11.80;99.90;;;;;;5154313;27;20065;-70
2023/06/01 01:46:57;;;;;;;12.82;6.45;;;11.80;99.90;;;;;;5154524;27;20057;-71
2023/06/01 01:49:23;;;;;;;;;;;11.80;99.90;;;;;;5154957;27;20043;-71
2023/06/01 01:52:08;;;;;;;12.73;6.10;;;11.80;99.90;;;;;;5154842;27;19926;-71
2023/06/01 01:54:38;;;;;;;14.32;5.60;;;11.80;99.90;;;;;;5154622;27;20042;-71
2023/06/01 01:57:05;;;;;;;8.80;6.00;;;11.80;99.90;;;;;;5154575;27;20046;-71
2023/06/01 01:59:32;;;;;;;9.68;5.93;;;11.80;99.90;;;;;;5154474;27;20505;-71
2023/06/01 02:01:58;;;;;;;13.90;6.00;;;11.70;99.90;;;;;;5154467;27;20042;-70
2023/06/01 02:04:23;;;;;;;10.30;6.00;;;11.70;99.90;;;;;;5154068;27;20039;-71
2023/06/01 02:06:49;;;;;;;7.32;5.53;;;11.70;99.90;;;;;;5154262;27;20039;-71
2023/06/01 02:09:15;;;;;;;7.68;5.30;;;11.70;99.90;;;;;;5136146;27;20053;-71
2023/06/01 02:11:40;;;;;;;9.68;5.10;;;11.60;99.90;;;;;;5154473;27;20054;-70
2023/06/01 02:14:06;;;;;;;13.70;5.90;;;11.60;99.90;;;;;;5135635;27;20034;-71
2023/06/01 02:16:32;;;;;;;9.63;5.80;;;11.60;99.90;;;;;;5153895;27;20099;-70
2023/06/01 02:18:58;;;;;;;12.40;6.60;;;11.60;99.90;;;;;;5154055;27;20051;-70
2023/06/01 02:21:25;;;;;;;13.20;5.75;;;11.70;99.90;;;;;;5119040;27;20455;-72
2023/06/01 02:23:51;;;;;;;10.32;6.25;;;11.70;99.90;;;;;;5154059;27;20043;-72
2023/06/01 02:26:18;;;;;;;13.27;6.47;;;11.70;99.90;;;;;;5153712;27;20368;-71
2023/06/01 02:28:44;;;;;;;9.88;6.10;;;11.70;99.90;;;;;;5154054;27;20546;-71
2023/06/01 02:31:10;;;;;;;10.82;5.88;;;11.70;99.90;;;;;;5135676;27;20137;-72
2023/06/01 02:33:36;;;;;;;9.98;6.13;;;11.60;99.90;;;;;;5153897;27;20046;-71
2023/06/01 02:36:02;;;;;;;14.25;7.07;;;11.70;99.90;;;;;;5154250;27;20043;-72
2023/06/01 02:38:28;;;;;;;6.90;5.68;;;11.70;99.90;;;;;;5135609;27;20051;-72
2023/06/01 02:40:53;;;;;;;8.52;6.10;;;11.70;99.90;;;;;;5154312;27;20358;-72
2023/06/01 02:43:19;;;;;;;13.55;6.35;;;11.80;99.90;;;;;;5155217;27;20042;-71
2023/06/01 02:45:45;;;;;;;9.40;5.78;;;11.70;99.90;;;;;;5139293;27;20059;-72
2023/06/01 02:48:11;;;;;;;10.85;5.35;;;11.80;99.90;;;;;;5158103;27;20043;-71
2023/06/01 02:50:36;;;;;;;7.43;5.80;;;11.70;99.90;;;;;;5158059;27;20459;-72
2023/06/01 02:53:04;;;;;;;8.82;5.75;;;11.70;99.90;;;;;;5158005;27;20047;-71
2023/06/01 02:55:30;;;;;;;7.95;6.18;;;11.70;99.90;;;;;;5139418;27;20131;-72
2023/06/01 02:57:56;;;;;;;13.07;6.05;;;11.70;99.90;;;;;;5158028;27;20120;-71
2023/06/01 03:00:22;;;;;;;8.77;5.32;;;11.70;99.90;;;;;;5157842;27;20049;-72
2023/06/01 03:02:48;;;;;;;15.02;5.90;;;11.70;99.90;;;;;;5158019;27;20054;-72
2023/06/01 03:05:14;;;;;;;7.63;5.28;;;11.80;99.90;;;;;;5157497;27;20035;-72
2023/06/01 03:07:44;;;;;;;7.28;4.40;;;11.70;99.90;;;;;;5139588;27;20047;-71
2023/06/01 03:10:10;;;;;;;5.38;4.55;;;11.70;99.90;;;;;;5157151;27;20483;-72
2023/06/01 03:12:36;;;;;;;9.93;4.13;;;11.70;99.90;;;;;;5156887;27;20487;-72
2023/06/01 03:15:04;;;;;;;7.25;4.30;;;11.80;99.90;;;;;;5157318;27;20099;-71
2023/06/01 03:17:30;;;;;;;7.55;5.03;;;11.70;99.90;;;;;;5157302;27;20061;-73
2023/06/01 03:19:55;;;;;;;6.68;4.25;;;11.70;99.90;;;;;;5157786;27;20046;-71
2023/06/01 03:22:21;;;;;;;8.27;4.68;;;11.70;99.90;;;;;;5157470;27;20042;-71
2023/06/01 03:24:50;;;;;;;6.75;4.43;;;11.70;99.90;;;;;;5138814;27;20042;-71
2023/06/01 03:27:21;;;;;;;6.78;4.47;;;11.70;99.90;;;;;;5156978;27;20045;-72
2023/06/01 03:29:47;;;;;;;7.07;4.28;;;11.80;99.90;;;;;;5157551;27;20083;-72
2023/06/01 03:32:14;;;;;;;11.27;5.55;;;11.80;99.90;;;;;;5157145;27;20042;-71
2023/06/01 03:34:40;;;;;;;10.25;4.75;;;10.80;99.90;;;;;;5156927;27;20035;-71
2023/06/01 03:37:07;;;;;;;10.90;4.63;;;11.80;99.90;;;;;;5138830;27;20095;-72
2023/06/01 03:39:34;;;;;;;7.90;4.88;;;11.80;99.90;;;;;;5156940;27;20046;-72
2023/06/01 03:42:00;;;;;;;8.93;5.03;;;11.80;99.90;;;;;;5138855;27;20054;-71
2023/06/01 03:44:26;;;;;;;10.73;5.88;;;11.80;99.90;;;;;;5156704;27;20105;-72
2023/06/01 03:46:52;;;;;;;6.70;4.93;;;11.80;99.90;;;;;;5156742;27;20045;-72
2023/06/01 03:49:18;;;;;;;9.25;5.82;;;11.70;99.90;;;;;;5156716;27;20410;-73
2023/06/01 03:51:44;;;;;;;10.20;5.60;;;11.80;99.90;;;;;;5156730;27;20051;-72
2023/06/01 03:54:10;;;;;;;14.32;5.43;;;11.80;99.90;;;;;;5156394;27;20077;-71
2023/06/01 03:56:36;;;;;;;11.48;5.60;;;11.80;99.90;;;;;;5138200;27;20043;-72
2023/06/01 03:59:02;;;;;;;11.02;5.80;;;11.70;99.90;;;;;;5156378;27;20050;-71
2023/06/01 04:01:32;;;;;;;9.90;5.65;;;11.80;99.90;;;;;;5156477;27;20043;-72
2023/06/01 04:03:58;;;;;;;9.52;5.53;;;11.70;99.90;;;;;;5156921;27;20171;-71
2023/06/01 04:06:24;;;;;;;6.65;4.95;;;11.80;99.90;;;;;;5137912;27;20070;-73
2023/06/01 04:08:55;;;;;;;8.68;6.05;;;11.80;99.90;;;;;;5156135;27;20050;-74
2023/06/01 04:11:22;;;;;;;16.40;7.57;;;11.80;99.90;;;;;;5121439;27;20049;-72
2023/06/01 04:13:48;;;;;;;12.52;6.25;;;11.80;99.90;;;;;;5138088;27;20141;-72
2023/06/01 04:16:15;;;;;;;8.27;5.13;;;11.80;99.90;;;;;;5121209;27;20119;-71
2023/06/01 04:18:41;;;;;;;12.73;6.13;;;11.80;99.90;;;;;;5141029;27;20103;-70
2023/06/01 04:21:08;;;;;;;14.82;6.50;;;11.80;99.90;;;;;;5140358;27;20118;-72
2023/06/01 04:23:35;;;;;;;11.02;6.18;;;11.80;99.90;;;;;;5158051;27;20416;-71
2023/06/01 04:26:02;;;;;;;10.98;6.15;;;11.80;99.90;;;;;;5156418;27;20050;-72
2023/06/01 04:28:28;;;;;;;15.07;5.82;;;11.90;99.90;;;;;;5156482;27;20106;-72
2023/06/01 04:30:55;;;;;;;10.65;6.05;;;11.90;99.90;;;;;;5156240;27;20047;-71
2023/06/01 04:33:22;;;;;;;14.80;5.50;;;11.80;99.90;;;;;;5155819;27;20086;-72
2023/06/01 04:35:48;;;;;;;6.32;4.80;;;11.80;99.90;;;;;;5155744;27;20058;-71
2023/06/01 04:38:16;;;;;;;18.10;6.32;;;11.80;99.90;;;;;;5156294;27;20047;-71
2023/06/01 04:40:44;;;;;;;6.18;4.50;;;11.70;99.90;;;;;;5155635;27;20054;-73
2023/06/01 04:43:11;;;;;;;7.40;4.93;;;11.70;99.90;;;;;;5155696;27;20055;-72
2023/06/01 04:45:38;;;;;;;10.52;5.13;;;11.60;99.90;;;;;;5155835;27;20061;-72
2023/06/01 04:48:08;;;;;;;8.98;4.80;;;11.70;99.90;;;;;;5155548;27;20106;-72
2023/06/01 04:50:34;;;;;;;8.10;4.95;;;11.70;99.90;;;;;;5155470;27;20480;-71
2023/06/01 04:53:00;;;;;;;8.20;5.20;;;11.70;99.90;;;;;;5155979;27;20142;-71
2023/06/01 04:55:26;;;;;;;11.77;5.55;;;11.70;99.90;;;;;;5119758;27;20534;-71
2023/06/01 04:57:52;;;;;;;9.05;5.15;;;11.70;99.90;;;;;;5155372;27;20126;-71
2023/06/01 05:00:18;;;;;;;7.93;5.15;;;11.60;99.90;;;;;;5155137;27;20038;-72
2023/06/01 05:02:46;;;;;;;11.57;5.03;;;11.60;99.90;;;;;;5155230;27;20126;-72
2023/06/01 05:05:12;;;;;;;9.18;5.57;;;11.60;99.90;;;;;;5155046;27;20054;-72
2023/06/01 05:07:38;;;;;;;11.65;4.93;;;11.60;99.90;;;;;;5155364;27;20129;-71
2023/06/01 05:10:06;;;;;;;7.05;4.53;;;11.60;99.90;;;;;;5155506;27;20055;-72
2023/06/01 05:12:36;;;;;;;8.77;5.03;;;11.70;99.90;;;;;;5137309;27;20435;-72
2023/06/01 05:15:03;;;;;;;8.13;4.25;;;11.70;99.90;;;;;;5154904;27;20063;-71
2023/06/01 05:17:29;;;;;;;10.13;4.72;;;11.70;99.90;;;;;;5155340;27;20443;-71
2023/06/01 05:19:56;;;;;;;8.95;5.28;;;11.80;99.90;;;;;;5155319;27;20054;-71
2023/06/01 05:22:24;;;;;;;8.63;5.75;;;11.70;99.90;;;;;;5136877;27;20118;-71
2023/06/01 05:24:50;;;;;;;11.02;5.03;;;11.80;99.90;;;;;;5154918;27;20050;-72
2023/06/01 05:27:16;;;;;;;6.93;5.07;;;11.80;99.90;;;;;;5154659;27;20047;-71
2023/06/01 05:29:42;;;;;;;9.40;4.75;;;11.90;99.90;;;;;;5155152;27;20476;-71
2023/06/01 05:32:08;;;;;;;13.30;5.15;;;11.90;99.90;;;;;;5136182;27;20117;-72
2023/06/01 05:34:34;;;;;;;9.15;4.88;;;11.90;99.90;;;;;;5154590;27;20039;-73
2023/06/01 05:37:01;;;;;;;6.55;4.03;;;11.90;99.90;;;;;;5155102;27;20046;-73
2023/06/01 05:39:28;;;;;;;10.48;4.80;;;11.90;99.90;;;;;;5154645;27;20035;-73
2023/06/01 05:41:57;;;;;;;9.65;6.55;;;11.90;99.90;;;;;;5136920;27;20411;-73
2023/06/01 05:44:26;;;;;;;13.77;4.65;;;11.80;99.90;;;;;;5154417;27;20058;-73
2023/06/01 05:46:52;;;;;;;7.63;5.20;;;11.90;99.90;;;;;;5154326;27;20051;-72
2023/06/01 05:49:19;;;;;;;7.47;4.60;;;11.90;99.90;;;;;;5154436;27;20070;-73
2023/06/01 05:51:46;;;;;;;8.02;3.90;;;12.00;99.90;;;;;;5153996;27;20042;-73
2023/06/01 05:54:12;;;;;;;5.53;4.13;;;11.90;99.90;;;;;;5119603;27;20046;-72
2023/06/01 05:56:38;;;;;;;7.38;4.22;;;11.90;99.90;;;;;;5153955;27;20039;-74
2023/06/01 05:59:04;;;;;;;7.53;3.40;;;11.90;99.90;;;;;;5135735;27;20043;-72
2023/06/01 06:01:29;;;;;;;5.68;3.10;;;11.90;99.90;;;;;;5154588;27;20103;-72
2023/06/01 06:03:55;;;;;;;5.50;3.45;;;12.10;99.90;;;;;;5154506;27;20125;-72
2023/06/01 06:06:22;;;;;;;5.03;3.83;;;11.90;99.90;;;;;;5154095;27;20048;-73
2023/06/01 06:08:48;;;;;;;4.22;3.83;;;12.00;99.90;;;;;;5154667;27;20043;-72
2023/06/01 06:11:14;;;;;;;5.13;3.47;;;12.10;99.90;;;;;;5153758;27;20121;-72
2023/06/01 06:13:39;;;;;;;6.97;3.90;;;12.10;99.90;;;;;;5136320;27;20138;-72
2023/06/01 06:16:05;;;;;;;6.43;3.40;;;12.10;99.90;;;;;;5154091;27;20125;-72
2023/06/01 06:18:31;;;;;;;5.00;3.83;;;12.10;99.90;;;;;;5155785;27;20050;-73
2023/06/01 06:20:57;;;;;;;8.80;4.63;;;12.10;99.90;;;;;;5158395;27;20064;-72
2023/06/01 06:23:23;;;;;;;7.30;4.20;;;12.10;99.90;;;;;;5139834;27;20042;-72
2023/06/01 06:25:49;;;;;;;4.95;3.97;;;12.10;99.90;;;;;;5140015;27;20122;-72
2023/06/01 06:28:15;;;;;;;5.90;3.28;;;12.10;99.90;;;;;;5158254;27;20049;-72
2023/06/01 06:30:40;;;;;;;7.32;4.07;;;12.20;99.90;;;;;;5158460;27;20039;-72
2023/06/01 06:33:06;;;;;;;7.03;3.58;;;12.30;99.90;;;;;;5139693;27;20487;-72
2023/06/01 06:35:32;;;;;;;3.50;2.85;;;12.40;99.90;;;;;;5157874;27;20112;-71
2023/06/01 06:37:58;;;;;;;5.68;3.08;;;12.40;99.90;;;;;;5158053;27;20035;-71
2023/06/01 06:40:23;;;;;;;4.28;3.22;;;12.30;99.90;;;;;;5158225;27;20043;-71
2023/06/01 06:42:50;;;;;;;3.03;2.72;;;12.40;99.90;;;;;;5157839;27;20047;-71
2023/06/01 06:45:19;;;;;;;3.85;2.47;;;12.40;99.90;;;;;;5139827;27;20058;-72
2023/06/01 06:47:46;;;;;;;7.20;2.55;;;12.50;99.90;;;;;;5157727;27;20046;-71
2023/06/01 06:50:12;;;;;;;2.60;2.17;;;12.40;99.90;;;;;;5157692;27;20117;-71
2023/06/01 06:52:38;;;;;;;4.60;2.92;;;12.40;99.90;;;;;;5157697;27;20137;-71
2023/06/01 06:55:05;;;;;;;5.47;2.85;;;12.40;99.90;;;;;;5157751;27;20056;-73
2023/06/01 06:57:30;;;;;;;3.88;3.17;;;12.30;99.90;;;;;;5139824;27;20062;-71
2023/06/01 06:59:57;;;;;;;4.88;3.35;;;12.30;99.90;;;;;;5157965;27;20043;-70
2023/06/01 07:02:23;;;;;;;5.07;2.88;;;12.20;99.90;;;;;;5157463;27;20061;-71
2023/06/01 07:04:48;;;;;;;6.68;2.88;;;12.20;99.90;;;;;;5157506;27;20074;-71
2023/06/01 07:07:14;;;;;;;5.60;3.22;;;12.20;99.90;;;;;;5157513;27;20118;-74
2023/06/01 07:09:40;;;;;;;8.85;3.55;;;12.20;99.90;;;;;;5139240;27;20042;-72
2023/06/01 07:12:08;;;;;;;6.90;3.22;;;12.30;99.90;;;;;;5157430;27;20103;-75
2023/06/01 07:14:36;;;;;;;10.63;3.55;;;12.40;99.90;;;;;;5138720;27;20054;-71
2023/06/01 07:17:02;;;;;;;8.65;3.80;;;12.50;99.90;;;;;;5139112;27;20046;-71
2023/06/01 07:19:32;;;;;;;4.45;2.40;;;12.60;99.90;;;;;;5157041;27;20046;-71
2023/06/01 07:22:00;;;;;;;5.60;2.60;;;12.60;99.90;;;;;;5157278;27;20043;-72
2023/06/01 07:24:26;;;;;;;4.25;2.10;;;12.70;99.90;;;;;;5157262;27;20141;-71
2023/06/01 07:26:51;;;;;;;5.05;2.22;;;12.70;99.90;;;;;;5157745;27;20050;-72
2023/06/01 07:29:17;;;;;;;7.07;2.33;;;12.80;99.90;;;;;;5156604;27;20049;-72
2023/06/01 07:31:43;;;;;;;4.70;2.10;;;12.90;99.90;;;;;;5157062;27;20133;-72
2023/06/01 07:34:09;;;;;;;3.63;2.00;;;12.90;99.90;;;;;;5139198;27;20103;-73
2023/06/01 07:36:36;;;;;;;3.08;2.10;;;12.90;99.90;;;;;;5157694;27;20053;-70
2023/06/01 07:39:06;;;;;;;2.13;1.92;;;12.90;99.90;;;;;;5158293;27;20135;-71
2023/06/01 07:41:32;;;;;;;2.63;2.03;;;12.90;99.90;;;;;;5139870;27;20096;-73
2023/06/01 07:43:58;;;;;;;2.50;2.20;;;12.90;99.90;;;;;;5157371;27;20042;-73
2023/06/01 07:46:24;;;;;;;4.03;2.30;;;12.90;99.90;;;;;;5157055;27;20062;-75
2023/06/01 07:48:50;;;;;;;3.50;2.40;;;12.80;99.90;;;;;;5157660;27;20043;-73
2023/06/01 07:51:16;;;;;;;2.92;2.22;;;12.80;99.90;;;;;;5121230;27;20371;-74
2023/06/01 07:53:43;;;;;;;4.55;2.58;;;12.80;99.90;;;;;;5156248;27;20490;-71
2023/06/01 07:56:08;;;;;;;2.92;2.50;;;12.70;99.90;;;;;;5156891;27;20150;-70
2023/06/01 07:58:34;;;;;;;4.50;2.40;;;12.70;99.90;;;;;;5120915;27;20047;-71
2023/06/01 08:01:00;;;;;;;4.60;2.60;;;12.70;99.90;;;;;;5156184;27;20069;-71
2023/06/01 08:03:26;;;;;;;2.45;2.22;;;12.70;99.90;;;;;;5156287;27;20098;-70
2023/06/01 08:05:57;;;;;;;4.20;2.42;;;12.60;99.90;;;;;;5156233;27;20046;-72
2023/06/01 08:08:23;;;;;;;4.80;2.55;;;12.70;99.90;;;;;;5156737;27;20111;-69
2023/06/01 08:10:49;;;;;;;3.30;2.70;;;12.60;99.90;;;;;;5137696;27;20056;-70
2023/06/01 08:13:15;;;;;;;4.05;2.88;;;12.70;99.90;;;;;;5156208;27;20122;-71
2023/06/01 08:15:42;;;;;;;3.88;2.80;;;12.70;99.90;;;;;;5137741;27;20074;-71
2023/06/01 08:18:08;;;;;;;4.55;2.92;;;12.70;99.90;;;;;;5156462;27;20053;-73
2023/06/01 08:20:35;;;;;;;5.65;3.22;;;12.70;99.90;;;;;;5155982;27;20051;-73
2023/06/01 08:23:02;;;;;;;5.15;2.78;;;12.70;99.90;;;;;;5156298;27;20485;-72
2023/06/01 08:25:28;;;;;;;6.55;3.03;;;12.70;99.90;;;;;;5156098;27;20352;-72
2023/06/01 08:27:54;;;;;;;6.40;2.53;;;12.80;99.90;;;;;;5155724;27;20035;-73
2023/06/01 08:30:20;;;;;;;2.90;2.60;;;12.80;99.90;;;;;;5156050;27;20046;-72
2023/06/01 08:32:45;;;;;;;6.65;3.10;;;12.80;99.90;;;;;;5156351;27;20057;-74
2023/06/01 08:35:11;;;;;;;3.03;2.67;;;12.90;99.90;;;;;;5156075;27;20038;-74
2023/06/01 08:37:37;;;;;;;5.10;3.13;;;12.90;99.90;;;;;;5137006;27;20584;-72
2023/06/01 08:40:08;;;;;;;5.30;2.50;;;13.00;99.90;;;;;;5155221;27;20047;-72
2023/06/01 08:42:46;;;;;;;2.97;1.98;;;13.10;99.90;;;;;;5136683;27;20058;-71
2023/06/01 08:45:13;;;;;;;4.05;2.08;;;13.30;99.90;;;;;;5155341;27;20061;-72
2023/06/01 08:47:40;;;;;;;3.95;1.88;;;13.30;99.90;;;;;;5155384;27;20065;-73
2023/06/01 08:50:08;;;;;;;2.20;1.45;;;13.40;99.90;;;;;;5155315;27;20053;-73
2023/06/01 08:52:35;;;;;;;3.83;1.52;;;13.50;99.90;;;;;;5154942;27;20076;-72
2023/06/01 08:55:02;;;;;;;3.40;2.40;;;13.70;99.90;;;;;;5155163;27;20039;-71
2023/06/01 08:57:29;;;;;;;3.78;2.38;;;13.60;99.90;;;;;;5137241;27;20118;-72
2023/06/01 08:59:55;;;;;;;3.70;2.20;;;13.60;99.90;;;;;;5136720;27;20047;-73
2023/06/01 09:02:22;;;;;;;5.50;2.58;;;13.50;99.90;;;;;;5155424;27;20060;-72
2023/06/01 09:04:48;;;;;;;5.07;2.70;;;13.40;99.90;;;;;;5155376;27;20038;-74
2023/06/01 09:07:14;;;;;;;3.20;2.78;;;13.30;99.90;;;;;;5154900;27;20049;-74
2023/06/01 09:09:40;;;;;;;7.22;4.00;;;13.40;99.90;;;;;;5154974;27;20137;-71
2023/06/01 09:12:29;;;;;;;5.80;3.78;;;13.40;99.90;;;;;;5154862;27;20077;-73
2023/06/01 09:15:18;;;;;;;6.70;4.03;;;13.10;99.90;;;;;;5155246;27;20120;-72
2023/06/01 09:17:49;;;;;;;12.73;3.63;;;13.10;99.90;;;;;;5136264;27;20043;-72
2023/06/01 09:20:24;;;;;;;4.47;3.38;;;13.20;99.90;;;;;;5154724;27;20113;-73
2023/06/01 09:22:50;;;;;;;7.93;3.58;;;13.30;99.90;;;;;;5155302;27;20053;-71
2023/06/01 09:25:16;;;;;;;6.10;3.60;;;13.20;99.90;;;;;;5154591;27;20074;-71
2023/06/01 09:27:50;;;;;;;9.02;4.25;;;13.10;99.90;;;;;;5155160;27;20047;-72
2023/06/01 09:30:18;;;;;;;11.32;5.30;;;13.00;99.90;;;;;;5154971;27;20047;-71
2023/06/01 09:32:48;;;;;;;7.43;5.05;;;12.90;99.90;;;;;;5154482;27;20053;-71
2023/06/01 09:35:14;;;;;;;11.55;4.80;;;12.90;99.90;;;;;;5154448;27;20039;-72
2023/06/01 09:37:56;;;;;;;12.07;5.25;;;12.80;99.90;;;;;;5136842;27;20126;-72
2023/06/01 09:40:21;;;;;;;8.38;4.47;;;12.80;99.90;;;;;;5136664;27;20049;-71
2023/06/01 09:42:50;;;;;;;13.60;4.95;;;13.00;99.90;;;;;;5154613;27;20435;-72
2023/06/01 09:45:24;;;;;;;6.15;3.50;;;13.00;99.90;;;;;;5153803;27;20053;-73
2023/06/01 09:47:52;;;;;;;7.03;4.68;;;13.10;99.90;;;;;;5136196;27;20067;-71
2023/06/01 09:50:38;;;;;;;7.20;3.72;;;13.20;99.90;;;;;;5154213;27;20046;-72
2023/06/01 09:53:05;;;;;;;5.93;3.50;;;13.30;99.90;;;;;;5154019;27;20095;-72
2023/06/01 09:55:31;;;;;;;6.93;3.92;;;13.50;99.90;;;;;;5154537;27;20046;-71
2023/06/01 09:58:22;;;;;;;6.53;3.55;;;13.50;99.90;;;;;;5154095;27;20053;-72
2023/06/01 10:00:51;;;;;;;10.35;3.50;;;13.70;99.90;;;;;;5154613;27;20042;-72
2023/06/01 10:03:18;;;;;;;5.93;3.67;;;13.60;99.90;;;;;;5154484;27;20047;-71
2023/06/01 10:05:45;;;;;;;9.65;3.58;;;13.60;99.90;;;;;;5154108;27;20124;-72
2023/06/01 10:08:16;;;;;;;5.78;3.15;;;13.70;99.90;;;;;;5154009;27;20042;-71
2023/06/01 10:10:47;;;;;;;6.35;3.53;;;13.80;99.90;;;;;;5135765;27;20186;-71
2023/06/01 10:13:13;;;;;;;5.07;3.78;;;14.00;99.90;;;;;;5153936;27;20050;-72
2023/06/01 10:15:38;;;;;;;7.75;3.40;;;14.00;99.90;;;;;;5154270;27;20066;-72
2023/06/01 10:18:05;;;;;;;11.02;3.70;;;14.20;99.90;;;;;;5154228;27;20091;-72
2023/06/01 10:20:33;;;;;;;6.95;3.65;;;14.20;99.90;;;;;;5154313;27;20043;-74
2023/06/01 10:23:00;;;;;;;8.20;4.10;;;14.00;99.90;;;;;;5154421;27;20042;-72
2023/06/01 10:25:31;;;;;;;7.22;3.67;;;13.90;99.90;;;;;;5153935;27;20045;-73
2023/06/01 10:28:20;;;;;;;14.13;4.40;;;14.00;99.90;;;;;;5153607;27;20046;-72
2023/06/01 10:30:46;;;;;;;9.40;3.53;;;13.90;99.90;;;;;;5152558;27;20050;-73
2023/06/01 10:33:13;;;;;;;10.18;3.50;;;14.00;99.90;;;;;;5154017;27;20122;-73
2023/06/01 10:35:42;;;;;;;9.52;3.92;;;14.00;99.90;;;;;;5154079;27;20156;-72
2023/06/01 10:38:14;;;;;;;8.25;3.67;;;14.00;99.90;;;;;;5153993;27;20043;-73
2023/06/01 10:40:41;;;;;;;4.43;3.20;;;14.20;99.90;;;;;;5153804;27;20185;-73
2023/06/01 10:43:08;;;;;;;5.88;3.75;;;14.30;99.90;;;;;;5153759;27;20069;-73
2023/06/01 10:45:34;;;;;;;6.75;3.53;;;14.50;99.90;;;;;;5153994;27;20051;-72
2023/06/01 10:48:04;;;;;;;7.05;4.00;;;14.50;99.90;;;;;;5153596;27;20051;-73
2023/06/01 10:50:30;;;;;;;5.70;3.70;;;14.40;99.90;;;;;;5154657;27;20035;-72
2023/06/01 10:52:56;;;;;;;5.78;3.55;;;14.50;99.90;;;;;;5154968;27;20043;-72
2023/06/01 10:55:26;;;;;;;5.70;3.58;;;14.70;99.90;;;;;;5154165;27;20042;-71
2023/06/01 10:58:26;;;;;;;5.32;3.60;;;14.70;99.90;;;;;;5153337;27;20551;-72
2023/06/01 11:00:54;;;;;;;7.25;4.10;;;14.90;99.90;;;;;;5153733;27;20056;-73
2023/06/01 11:03:44;;;;;;;5.70;3.60;;;15.00;99.90;;;;;;5135347;27;20038;-73
2023/06/01 11:06:31;;;;;;;7.80;3.60;;;15.10;99.90;;;;;;5157869;27;20043;-73
2023/06/01 11:08:59;;;;;;;8.23;3.90;;;15.20;99.90;;;;;;5157440;27;20046;-72
2023/06/01 11:11:48;;;;;;;9.52;3.90;;;15.20;99.90;;;;;;5157554;27;20100;-73
2023/06/01 11:14:15;;;;;;;8.52;3.60;;;15.30;99.90;;;;;;5157279;27;20116;-74
2023/06/01 11:16:40;;;;;;;5.38;3.97;;;14.90;99.90;;;;;;5157315;27;20050;-72
2023/06/01 11:19:08;;;;;;;7.05;4.68;;;15.00;99.90;;;;;;5157206;27;20095;-73
2023/06/01 11:21:37;;;;;;;4.93;4.03;;;14.90;99.90;;;;;;5157143;27;20046;-72
2023/06/01 11:24:23;;;;;;;8.45;3.65;;;14.90;99.90;;;;;;5157630;27;20096;-72
2023/06/01 11:26:50;;;;;;;6.82;4.40;;;15.00;99.90;;;;;;5157324;27;20046;-73
2023/06/01 11:29:25;;;;;;;5.15;3.55;;;15.20;99.90;;;;;;5157552;27;20062;-72
2023/06/01 11:32:03;;;;;;;8.70;4.28;;;15.20;99.90;;;;;;5157013;27;20046;-73
2023/06/01 11:34:38;;;;;;;4.88;3.35;;;15.30;99.90;;;;;;5157043;27;20047;-73
2023/06/01 11:37:05;;;;;;;5.97;3.20;;;15.30;99.90;;;;;;5138822;27;20047;-72
2023/06/01 11:39:32;;;;;;;7.32;3.30;;;15.00;99.90;;;;;;5157482;27;20039;-73
2023/06/01 11:42:09;;;;;;;7.32;3.45;;;15.00;99.90;;;;;;5156716;27;20047;-72
2023/06/01 11:44:40;;;;;;;4.03;2.83;;;15.10;99.90;;;;;;5138369;27;20058;-72
2023/06/01 11:47:08;;;;;;;5.25;3.50;;;15.10;99.90;;;;;;5156816;27;20093;-74
2023/06/01 11:49:44;;;;;;;8.85;3.78;;;15.20;99.90;;;;;;5156805;27;20043;-73
2023/06/01 11:52:10;;;;;;;4.55;2.72;;;15.40;99.90;;;;;;5156671;27;20048;-73
2023/06/01 11:54:37;;;;;;;6.85;3.08;;;15.70;99.90;;;;;;5156669;27;20198;-74
2023/06/01 11:57:03;;;;;;;4.85;3.53;;;15.90;99.90;;;;;;5156694;27;20069;-72
2023/06/01 11:59:44;;;;;;;10.75;3.10;;;15.80;99.90;;;;;;5156536;27;20038;-73
2023/06/01 12:02:22;;;;;;;7.80;3.72;;;15.90;99.90;;;;;;5156492;27;20179;-73
2023/06/01 12:04:56;;;;;;;4.20;3.05;;;15.60;99.90;;;;;;5156874;27;20058;-72
2023/06/01 12:07:22;;;;;;;4.75;3.45;;;15.20;99.90;;;;;;5156377;27;20043;-73
2023/06/01 12:09:49;;;;;;;6.05;2.97;;;15.30;99.90;;;;;;5156357;27;20123;-74
2023/06/01 12:12:15;;;;;;;8.52;2.95;;;15.30;99.90;;;;;;5156534;27;20055;-74
2023/06/01 12:14:43;;;;;;;5.20;3.60;;;15.50;99.90;;;;;;5156860;27;20061;-74
2023/06/01 12:17:11;;;;;;;11.48;3.97;;;15.50;99.90;;;;;;5156659;27;20107;-73
2023/06/01 12:19:45;;;;;;;7.63;3.40;;;15.10;99.90;;;;;;5156156;27;20042;-73
2023/06/01 12:22:11;;;;;;;4.85;3.08;;;15.00;99.90;;;;;;5156167;27;20047;-73
2023/06/01 12:24:38;;;;;;;10.18;3.92;;;15.00;99.90;;;;;;5137630;27;20039;-74
2023/06/01 12:27:19;;;;;;;5.25;3.10;;;14.90;99.90;;;;;;5155903;27;20053;-74
2023/06/01 12:29:47;;;;;;;8.27;3.80;;;14.80;99.90;;;;;;5155951;27;20051;-71
2023/06/01 12:32:15;;;;;;;8.82;4.40;;;14.60;99.90;;;;;;5137527;27;20044;-73
2023/06/01 12:34:48;;;;;;;10.13;4.30;;;14.60;99.90;;;;;;5155703;27;20049;-72
2023/06/01 12:37:20;;;;;;;7.70;4.05;;;14.70;99.90;;;;;;5137158;27;20102;-72
2023/06/01 12:39:53;;;;;;;7.47;4.13;;;14.60;99.90;;;;;;5155625;27;20551;-72
2023/06/01 12:42:33;;;;;;;5.38;3.75;;;14.70;99.90;;;;;;5137064;27;20047;-72
2023/06/01 12:44:59;;;;;;;6.40;4.00;;;14.80;99.90;;;;;;5137284;27;20051;-73
2023/06/01 12:47:25;;;;;;;5.50;4.25;;;15.00;99.90;;;;;;5155108;27;20479;-72
2023/06/01 12:50:08;;;;;;;8.07;4.50;;;15.10;99.90;;;;;;5155029;27;20046;-72
2023/06/01 12:52:34;;;;;;;9.52;4.13;;;14.90;99.90;;;;;;5155528;27;20095;-71